Time;durP1;ratioP1;P1;durP2;ratioP2;P2;SDS_P1;SDS_P2;PMS_P1;PMS_P2;Temp;Humidity;BMP_temperature;BMP_pressure;BME280_temperature;BME280_humidity;BME280_pressure;Samples;Min_cycle;Max_cycle;Signal;HPM_P1;HPM_P2
2021/09/06 00:01:21;;;;;;;1.10;1.10;;;13.70;99.90;;;;;;6076743;23;20362;-88
2021/09/06 00:04:07;;;;;;;1.30;1.20;;;13.70;99.90;;;;;;6076229;23;20410;-89
2021/09/06 00:06:53;;;;;;;1.33;1.23;;;13.70;99.90;;;;;;6064336;23;20354;-89
2021/09/06 00:09:39;;;;;;;1.40;1.30;;;13.70;99.90;;;;;;6058403;23;20358;-90
2021/09/06 00:12:25;;;;;;;1.20;1.08;;;13.70;99.90;;;;;;6078406;23;20351;-90
2021/09/06 00:15:11;;;;;;;1.20;1.20;;;13.70;99.90;;;;;;6076987;23;20362;-89
2021/09/06 00:17:58;;;;;;;1.47;1.37;;;13.60;99.90;;;;;;6099664;23;20377;-89
2021/09/06 00:21:08;;;;;;;1.25;1.15;;;13.60;99.90;;;;;;6083925;23;20390;-90
2021/09/06 00:24:09;;;;;;;1.20;1.20;;;13.60;99.90;;;;;;6060355;23;20409;-90
2021/09/06 00:26:55;;;;;;;1.40;1.30;;;13.60;99.90;;;;;;6079719;23;20402;-90
2021/09/06 00:29:41;;;;;;;1.10;1.00;;;13.60;99.90;;;;;;6079980;23;20363;-90
2021/09/06 00:32:27;;;;;;;1.38;1.27;;;13.60;99.90;;;;;;6077073;23;20362;-87
2021/09/06 00:35:13;;;;;;;1.23;1.15;;;13.40;99.90;;;;;;6080251;23;20362;-89
2021/09/06 00:37:59;;;;;;;1.42;1.33;;;13.50;99.90;;;;;;6057148;23;20431;-89
2021/09/06 00:40:46;;;;;;;1.80;1.70;;;13.50;99.90;;;;;;6080085;23;20394;-90
2021/09/06 00:43:34;;;;;;;1.33;1.23;;;13.40;99.90;;;;;;6079061;23;20407;-91
2021/09/06 00:46:20;;;;;;;1.50;1.40;;;13.40;99.90;;;;;;6079089;23;20377;-89
2021/09/06 00:49:06;;;;;;;1.55;1.40;;;13.40;99.90;;;;;;6058933;23;20350;-87
2021/09/06 00:51:52;;;;;;;1.60;1.27;;;13.30;99.90;;;;;;6079484;23;20374;-90
2021/09/06 00:54:39;;;;;;;1.13;1.13;;;13.30;99.90;;;;;;6099499;23;20427;-89
2021/09/06 00:57:25;;;;;;;1.33;1.30;;;13.30;99.90;;;;;;6079222;23;20362;-88
2021/09/06 01:00:12;;;;;;;1.38;1.30;;;13.30;99.90;;;;;;6076590;23;20358;-91
2021/09/06 01:02:58;;;;;;;1.38;1.10;;;13.30;99.90;;;;;;6098404;23;20414;-90
2021/09/06 01:05:47;;;;;;;0.88;0.88;;;13.20;99.90;;;;;;6119461;23;20358;-90
2021/09/06 01:08:52;;;;;;;1.80;1.30;;;13.20;99.90;;;;;;6087318;23;20363;-90
2021/09/06 01:11:52;;;;;;;1.10;1.10;;;13.20;99.90;;;;;;6081270;23;20362;-89
2021/09/06 01:14:43;;;;;;;1.35;1.25;;;13.20;99.90;;;;;;6080345;23;20362;-90
2021/09/06 01:17:30;;;;;;;1.10;1.10;;;13.20;99.90;;;;;;6105962;23;20394;-90
2021/09/06 01:20:16;;;;;;;1.15;1.10;;;13.20;99.90;;;;;;6078979;23;20412;-90
2021/09/06 01:23:09;;;;;;;1.40;1.30;;;13.10;99.90;;;;;;6079803;23;20362;-90
2021/09/06 01:26:16;;;;;;;1.05;1.05;;;13.20;99.90;;;;;;6075896;23;20371;-90
2021/09/06 01:29:05;;;;;;;1.02;1.02;;;13.10;99.90;;;;;;6078552;23;20375;-88
2021/09/06 01:31:52;;;;;;;1.20;1.13;;;13.10;99.90;;;;;;6098063;23;20363;-89
2021/09/06 01:34:39;;;;;;;0.93;0.93;;;13.00;99.90;;;;;;6098263;23;20386;-89
2021/09/06 01:37:25;;;;;;;1.20;1.20;;;13.00;99.90;;;;;;6077989;23;20381;-88
2021/09/06 01:40:13;;;;;;;1.45;1.10;;;13.00;99.90;;;;;;6078451;23;20362;-88
2021/09/06 01:43:01;;;;;;;0.98;0.98;;;13.00;99.90;;;;;;6080456;23;20372;-88
2021/09/06 01:45:47;;;;;;;1.40;1.30;;;13.00;99.90;;;;;;6118926;23;20399;-87
2021/09/06 01:48:34;;;;;;;1.05;1.05;;;13.00;99.90;;;;;;6078185;23;20377;-92
2021/09/06 01:51:20;;;;;;;1.27;1.17;;;13.00;99.90;;;;;;6078074;23;20354;-90
2021/09/06 01:54:06;;;;;;;1.33;1.30;;;13.00;99.90;;;;;;6078600;23;20362;-90
2021/09/06 01:56:52;;;;;;;1.10;1.10;;;13.00;99.90;;;;;;6097793;23;20393;-89
2021/09/06 01:59:38;;;;;;;1.30;1.27;;;13.00;99.90;;;;;;6077562;23;20366;-91
2021/09/06 02:02:25;;;;;;;1.33;1.23;;;13.00;99.90;;;;;;6080707;23;20366;-89
2021/09/06 02:05:11;;;;;;;0.93;0.93;;;12.90;99.90;;;;;;6078167;23;20427;-89
2021/09/06 02:07:59;;;;;;;1.30;1.20;;;12.90;99.90;;;;;;6097919;23;20366;-89
2021/09/06 02:10:46;;;;;;;1.20;1.13;;;12.90;99.90;;;;;;6080094;23;20391;-88
2021/09/06 02:13:33;;;;;;;1.10;1.10;;;12.90;99.90;;;;;;6076176;23;20347;-90
2021/09/06 02:16:19;;;;;;;1.07;1.07;;;12.90;99.90;;;;;;6078481;23;20375;-88
2021/09/06 02:19:06;;;;;;;1.15;1.15;;;12.90;99.90;;;;;;6078972;23;20374;-92
2021/09/06 02:21:58;;;;;;;0.85;0.85;;;12.80;99.90;;;;;;6077463;23;20366;-92
2021/09/06 02:24:45;;;;;;;1.23;1.13;;;12.80;99.90;;;;;;6115235;23;20371;-89
2021/09/06 02:27:39;;;;;;;1.40;1.20;;;12.80;99.90;;;;;;6061873;23;20366;-87
2021/09/06 02:30:40;;;;;;;1.20;1.20;;;12.70;99.90;;;;;;6079952;23;20358;-89
2021/09/06 02:33:29;;;;;;;1.00;1.00;;;12.70;99.90;;;;;;6076633;23;20385;-90
2021/09/06 02:36:34;;;;;;;1.13;1.10;;;12.60;99.90;;;;;;6080854;23;20349;-88
2021/09/06 02:39:21;;;;;;;1.15;1.13;;;12.70;99.90;;;;;;6078716;23;20446;-88
2021/09/06 02:42:07;;;;;;;1.30;1.20;;;12.70;99.90;;;;;;6078015;23;20358;-89
2021/09/06 02:44:55;;;;;;;1.40;1.30;;;12.70;99.90;;;;;;6118228;23;20422;-90
2021/09/06 02:47:45;;;;;;;1.65;1.40;;;12.60;99.90;;;;;;6097237;23;20354;-91
2021/09/06 02:50:33;;;;;;;1.48;1.30;;;12.60;99.90;;;;;;6078384;23;20433;-91
2021/09/06 02:53:23;;;;;;;2.10;1.45;;;12.60;99.90;;;;;;6115609;23;20383;-89
2021/09/06 02:56:09;;;;;;;1.40;1.30;;;12.60;99.90;;;;;;6098425;23;20358;-87
2021/09/06 02:58:58;;;;;;;1.30;1.20;;;12.50;99.90;;;;;;6076975;23;20366;-88
2021/09/06 03:01:44;;;;;;;1.42;1.35;;;12.40;99.90;;;;;;6098540;23;20363;-92
2021/09/06 03:04:30;;;;;;;1.40;1.30;;;12.40;99.90;;;;;;6097447;23;20405;-87
2021/09/06 03:07:17;;;;;;;2.03;1.42;;;12.40;99.90;;;;;;6115929;23;20450;-89
2021/09/06 03:10:04;;;;;;;1.60;1.50;;;12.40;99.90;;;;;;6075883;23;20370;-88
2021/09/06 03:12:54;;;;;;;1.38;1.27;;;12.40;99.90;;;;;;6077881;23;20415;-89
2021/09/06 03:15:41;;;;;;;1.40;1.30;;;12.40;99.90;;;;;;6077124;23;20394;-88
2021/09/06 03:18:27;;;;;;;1.60;1.48;;;12.40;99.90;;;;;;6076595;23;20386;-88
2021/09/06 03:21:32;;;;;;;1.52;1.42;;;12.30;99.90;;;;;;6109364;23;20438;-89
2021/09/06 03:24:18;;;;;;;1.27;1.17;;;12.30;99.90;;;;;;6077311;23;20362;-89
2021/09/06 03:27:04;;;;;;;3.22;1.17;;;12.20;99.90;;;;;;6076504;23;20389;-90
2021/09/06 03:29:51;;;;;;;1.42;1.33;;;12.30;99.90;;;;;;6097568;23;20463;-89
2021/09/06 03:32:37;;;;;;;1.40;1.30;;;12.20;99.90;;;;;;6077576;23;20386;-90
2021/09/06 03:35:23;;;;;;;1.40;1.30;;;12.20;99.90;;;;;;6077937;23;20359;-88
2021/09/06 03:38:10;;;;;;;1.10;1.10;;;12.20;99.90;;;;;;6076389;23;20394;-88
2021/09/06 03:40:56;;;;;;;1.27;1.13;;;12.20;99.90;;;;;;6075672;23;20386;-89
2021/09/06 03:43:43;;;;;;;1.63;1.48;;;12.20;99.90;;;;;;6075962;23;20362;-90
2021/09/06 03:46:30;;;;;;;1.20;1.20;;;12.20;99.90;;;;;;6117487;23;20351;-91
2021/09/06 03:49:18;;;;;;;1.10;1.10;;;12.20;99.90;;;;;;6076143;23;20362;-88
2021/09/06 03:52:07;;;;;;;1.42;1.33;;;12.30;99.90;;;;;;6078555;23;20442;-87
2021/09/06 03:54:54;;;;;;;2.03;1.30;;;12.10;99.90;;;;;;6076823;23;20443;-88
2021/09/06 03:57:40;;;;;;;1.20;1.20;;;12.10;99.90;;;;;;6073037;23;21052;-82
2021/09/06 04:00:26;;;;;;;1.30;1.20;;;12.10;99.90;;;;;;6111702;23;20365;-82
2021/09/06 04:03:13;;;;;;;1.60;1.50;;;12.10;99.90;;;;;;6110810;23;20454;-85
2021/09/06 04:06:00;;;;;;;1.50;1.40;;;12.10;99.90;;;;;;6083047;23;20374;-87
2021/09/06 04:08:46;;;;;;;3.17;1.70;;;12.10;99.90;;;;;;6062852;23;20383;-85
2021/09/06 04:11:34;;;;;;;1.35;1.25;;;12.00;99.90;;;;;;6067989;23;20414;-86
2021/09/06 04:14:22;;;;;;;1.00;1.00;;;12.00;99.90;;;;;;6064770;23;20371;-87
2021/09/06 04:17:11;;;;;;;1.35;1.25;;;11.90;99.90;;;;;;6070089;23;20370;-89
2021/09/06 04:20:03;;;;;;;1.20;1.10;;;11.90;99.90;;;;;;6070066;23;20374;-85
2021/09/06 04:22:51;;;;;;;1.50;1.40;;;11.90;99.90;;;;;;6068056;23;20383;-82
2021/09/06 04:25:39;;;;;;;1.90;1.50;;;12.00;99.90;;;;;;6076523;23;20362;-88
2021/09/06 04:28:25;;;;;;;1.50;1.40;;;11.90;99.90;;;;;;6074765;23;20371;-88
2021/09/06 04:31:11;;;;;;;1.60;1.48;;;11.90;99.90;;;;;;6114027;23;20350;-88
2021/09/06 04:33:59;;;;;;;1.50;1.33;;;11.80;99.90;;;;;;6046890;23;20398;-89
2021/09/06 04:36:50;;;;;;;1.47;1.37;;;11.90;99.90;;;;;;6070921;23;20367;-84
2021/09/06 04:39:36;;;;;;;1.50;1.40;;;11.90;99.90;;;;;;6055882;23;20383;-82
2021/09/06 04:42:50;;;;;;;1.45;1.35;;;11.90;99.90;;;;;;6058188;23;20406;-89
2021/09/06 04:46:09;;;;;;;1.40;1.30;;;11.90;99.90;;;;;;6049313;23;20864;-84
2021/09/06 05:05:18;;;;;;;1.67;1.40;;;11.80;99.90;;;;;;6115910;23;20383;-89
2021/09/06 05:08:04;;;;;;;1.40;1.40;;;11.90;99.90;;;;;;6096630;23;20351;-84
2021/09/06 05:10:52;;;;;;;1.50;1.40;;;11.90;99.90;;;;;;6093501;23;20450;-86
2021/09/06 05:13:39;;;;;;;1.50;1.40;;;11.90;99.90;;;;;;6114048;23;20361;-88
2021/09/06 05:16:26;;;;;;;2.13;1.80;;;12.00;99.90;;;;;;6111594;23;20403;-88
2021/09/06 05:19:12;;;;;;;1.77;1.67;;;12.00;99.90;;;;;;6113383;23;20402;-88
2021/09/06 05:21:58;;;;;;;1.20;1.20;;;12.10;99.90;;;;;;6134787;23;21148;-90
2021/09/06 05:24:45;;;;;;;1.60;1.50;;;12.20;99.90;;;;;;6130610;23;20351;-88
2021/09/06 05:27:32;;;;;;;1.40;1.30;;;12.30;99.90;;;;;;6113947;23;20382;-88
2021/09/06 05:30:18;;;;;;;1.50;1.40;;;12.30;99.90;;;;;;6132964;23;20379;-88
2021/09/06 05:33:05;;;;;;;1.20;1.20;;;12.40;99.90;;;;;;6111464;23;20350;-88
2021/09/06 05:35:51;;;;;;;1.60;1.50;;;12.50;99.90;;;;;;6110808;23;20498;-85
2021/09/06 05:38:38;;;;;;;1.63;1.52;;;12.70;99.90;;;;;;6131717;23;20383;-89
2021/09/06 05:41:51;;;;;;;1.80;1.35;;;12.80;99.90;;;;;;6143884;23;20389;-91
2021/09/06 05:44:39;;;;;;;1.95;1.52;;;12.90;99.90;;;;;;6111791;23;20362;-91
2021/09/06 05:47:25;;;;;;;1.73;1.63;;;12.90;99.90;;;;;;6112431;23;20355;-87
2021/09/06 05:50:17;;;;;;;1.65;1.55;;;13.00;99.90;;;;;;6153197;23;20359;-90
2021/09/06 05:53:23;;;;;;;1.52;1.42;;;13.10;99.90;;;;;;6142061;23;20359;-89
2021/09/06 05:56:09;;;;;;;1.60;1.50;;;13.30;99.90;;;;;;6129645;23;20343;-90
2021/09/06 05:58:55;;;;;;;2.22;1.80;;;13.40;99.90;;;;;;6111596;23;20391;-88
2021/09/06 06:01:42;;;;;;;1.43;1.30;;;13.60;99.90;;;;;;6108909;23;20354;-89
2021/09/06 06:04:29;;;;;;;1.60;1.50;;;13.70;99.90;;;;;;6131627;23;20359;-89
2021/09/06 06:07:18;;;;;;;2.13;1.55;;;13.80;99.90;;;;;;6109557;23;20385;-90
2021/09/06 06:10:04;;;;;;;1.38;1.30;;;13.90;99.90;;;;;;6130543;23;20371;-89
2021/09/06 06:12:53;;;;;;;1.50;1.40;;;14.00;99.90;;;;;;6112127;23;20386;-91
2021/09/06 06:15:39;;;;;;;1.52;1.40;;;14.10;99.90;;;;;;6109149;23;20363;-93
2021/09/06 06:18:25;;;;;;;1.60;1.50;;;14.20;99.90;;;;;;6129645;23;20363;-89
2021/09/06 06:21:11;;;;;;;1.50;1.40;;;14.30;99.90;;;;;;6127883;23;20371;-90
2021/09/06 06:24:07;;;;;;;1.58;1.48;;;14.50;99.90;;;;;;6132168;23;20378;-92
2021/09/06 06:27:08;;;;;;;3.08;1.60;;;14.70;99.90;;;;;;6134119;23;20406;-90
2021/09/06 06:29:54;;;;;;;1.70;1.60;;;14.80;99.90;;;;;;6129401;23;20371;-89
2021/09/06 06:32:40;;;;;;;1.83;1.73;;;14.90;99.90;;;;;;6147512;23;20437;-91
2021/09/06 06:35:45;;;;;;;2.15;1.73;;;15.10;99.90;;;;;;6135328;23;20382;-90
2021/09/06 06:38:32;;;;;;;1.65;1.55;;;15.20;99.90;;;;;;6111003;23;20378;-90
2021/09/06 06:41:18;;;;;;;1.50;1.40;;;15.30;99.90;;;;;;6129882;23;20371;-89
2021/09/06 06:44:13;;;;;;;1.70;1.48;;;15.50;99.90;;;;;;6112131;23;20387;-89
2021/09/06 06:46:59;;;;;;;1.70;1.40;;;15.70;99.90;;;;;;6108313;23;20374;-91
2021/09/06 06:49:46;;;;;;;1.73;1.63;;;15.80;99.90;;;;;;6108723;23;20343;-88
2021/09/06 06:52:32;;;;;;;1.50;1.40;;;15.90;99.90;;;;;;6108255;23;20355;-92
2021/09/06 06:55:18;;;;;;;2.40;1.67;;;16.00;99.90;;;;;;6111941;23;20351;-89
2021/09/06 06:58:04;;;;;;;1.70;1.60;;;16.10;99.90;;;;;;6130364;23;20390;-90
2021/09/06 07:00:51;;;;;;;1.70;1.60;;;16.30;99.90;;;;;;6128411;23;20364;-91
2021/09/06 07:03:40;;;;;;;1.40;1.30;;;16.40;99.90;;;;;;6108980;23;20394;-92
2021/09/06 07:06:26;;;;;;;1.40;1.30;;;16.60;99.90;;;;;;6110627;23;20359;-90
2021/09/06 07:09:13;;;;;;;2.08;1.73;;;16.80;99.90;;;;;;6110149;23;20358;-91
2021/09/06 07:12:00;;;;;;;1.88;1.50;;;16.90;99.90;;;;;;6128093;23;20721;-90
2021/09/06 07:14:47;;;;;;;1.60;1.50;;;17.00;99.90;;;;;;6110845;23;20359;-92
2021/09/06 07:17:33;;;;;;;2.53;1.42;;;17.10;99.90;;;;;;6108607;23;20454;-91
2021/09/06 07:20:19;;;;;;;1.95;1.48;;;17.30;99.90;;;;;;6108574;23;20367;-90
2021/09/06 07:23:05;;;;;;;2.10;1.50;;;17.50;99.90;;;;;;6128400;23;20366;-92
2021/09/06 07:25:52;;;;;;;2.83;1.67;;;17.70;99.90;;;;;;6109932;23;20385;-92
2021/09/06 07:28:38;;;;;;;1.42;1.33;;;17.80;99.90;;;;;;6110287;23;20355;-90
2021/09/06 07:31:24;;;;;;;1.45;1.40;;;17.90;99.90;;;;;;6108338;23;20410;-92
2021/09/06 07:34:10;;;;;;;1.55;1.45;;;18.10;99.90;;;;;;6109550;23;20351;-90
2021/09/06 07:36:56;;;;;;;1.73;1.63;;;18.20;99.90;;;;;;6105338;23;20351;-89
2021/09/06 07:39:47;;;;;;;1.77;1.67;;;18.40;99.90;;;;;;6105709;23;20395;-90
2021/09/06 07:42:34;;;;;;;1.55;1.45;;;18.50;99.90;;;;;;6109646;23;20856;-91
2021/09/06 07:45:20;;;;;;;1.40;1.30;;;18.60;99.90;;;;;;6125513;23;21603;-92
2021/09/06 07:48:10;;;;;;;1.40;1.30;;;18.80;99.90;;;;;;6108874;23;20426;-87
2021/09/06 07:51:00;;;;;;;1.73;1.63;;;19.00;99.90;;;;;;6127007;23;20410;-90
2021/09/06 07:53:46;;;;;;;1.50;1.40;;;19.00;99.90;;;;;;6107918;23;20402;-91
2021/09/06 07:56:35;;;;;;;1.70;1.60;;;19.10;99.90;;;;;;6107992;23;20390;-92
2021/09/06 07:59:22;;;;;;;2.20;2.00;;;19.20;99.90;;;;;;6107551;23;20394;-92
2021/09/06 08:02:08;;;;;;;1.80;1.65;;;19.30;99.90;;;;;;6108175;23;20552;-90
2021/09/06 08:04:57;;;;;;;2.88;1.73;;;19.30;99.90;;;;;;6127839;23;20442;-90
2021/09/06 08:07:43;;;;;;;2.45;1.73;;;19.40;99.90;;;;;;6127025;23;20370;-90
2021/09/06 08:10:29;;;;;;;1.80;1.70;;;19.40;99.90;;;;;;6125348;23;20358;-91
2021/09/06 08:13:16;;;;;;;1.58;1.48;;;19.50;99.90;;;;;;6106341;23;20378;-90
2021/09/06 08:16:03;;;;;;;1.60;1.50;;;19.50;99.90;;;;;;6107803;23;20435;-90
2021/09/06 08:18:52;;;;;;;1.58;1.48;;;19.50;99.90;;;;;;6105576;23;20440;-90
2021/09/06 08:21:39;;;;;;;2.20;1.60;;;19.70;99.90;;;;;;6107347;23;20593;-91
2021/09/06 08:24:25;;;;;;;2.50;1.80;;;19.70;99.90;;;;;;6128438;23;20363;-91
2021/09/06 08:27:11;;;;;;;1.85;1.75;;;19.80;99.90;;;;;;6106573;23;20395;-92
2021/09/06 08:29:58;;;;;;;1.73;1.63;;;19.90;99.90;;;;;;6107362;23;20363;-93
2021/09/06 08:32:44;;;;;;;1.57;1.47;;;19.80;99.90;;;;;;6109138;23;20383;-93
2021/09/06 08:35:30;;;;;;;2.00;1.70;;;19.90;99.90;;;;;;6107127;23;20466;-92
2021/09/06 08:38:18;;;;;;;2.42;1.77;;;20.00;99.90;;;;;;6126540;23;20382;-91
2021/09/06 08:41:05;;;;;;;1.48;1.38;;;20.10;99.90;;;;;;6108949;23;20402;-91
2021/09/06 08:43:51;;;;;;;1.70;1.60;;;20.10;99.90;;;;;;6108496;23;20378;-92
2021/09/06 08:46:42;;;;;;;2.05;1.85;;;20.20;99.90;;;;;;6129411;23;20402;-89
2021/09/06 08:49:29;;;;;;;1.50;1.40;;;20.30;99.90;;;;;;6109535;23;20674;-93
2021/09/06 08:52:15;;;;;;;2.20;1.60;;;20.50;99.90;;;;;;6108622;23;20367;-92
2021/09/06 08:55:01;;;;;;;1.77;1.67;;;20.60;99.90;;;;;;6109025;23;20367;-92
2021/09/06 08:57:48;;;;;;;1.42;1.33;;;20.60;99.90;;;;;;6126489;23;20391;-91
2021/09/06 09:00:34;;;;;;;2.93;1.87;;;20.60;99.90;;;;;;6110113;23;20374;-92
2021/09/06 09:03:49;;;;;;;1.60;1.50;;;20.80;99.90;;;;;;6117932;23;20381;-93
2021/09/06 09:06:52;;;;;;;1.75;1.50;;;20.60;99.90;;;;;;6115585;23;20408;-91
2021/09/06 09:09:53;;;;;;;2.17;1.90;;;20.90;99.90;;;;;;6114515;23;20495;-92
2021/09/06 09:13:03;;;;;;;1.90;1.80;;;21.10;99.90;;;;;;6116049;23;20375;-91
2021/09/06 09:16:05;;;;;;;2.10;1.95;;;21.10;99.90;;;;;;6112238;23;20362;-90
2021/09/06 09:19:09;;;;;;;2.30;2.10;;;21.10;99.90;;;;;;6115380;23;20382;-90
2021/09/06 09:22:09;;;;;;;2.00;1.83;;;20.90;99.90;;;;;;6111323;23;20367;-90
2021/09/06 09:25:16;;;;;;;3.75;2.25;;;21.00;99.90;;;;;;6116143;23;20390;-92
2021/09/06 09:28:37;;;;;;;2.58;2.00;;;21.30;99.90;;;;;;6129590;23;20452;-93
2021/09/06 09:31:47;;;;;;;2.28;2.17;;;21.40;99.90;;;;;;6111682;23;20386;-91
2021/09/06 09:34:52;;;;;;;1.77;1.67;;;21.50;99.90;;;;;;6134843;23;20371;-92
2021/09/06 09:37:47;;;;;;;3.38;2.30;;;21.80;99.90;;;;;;6128483;23;20435;-93
2021/09/06 09:40:41;;;;;;;1.75;1.60;;;21.90;99.90;;;;;;6126409;23;20367;-93
2021/09/06 09:43:31;;;;;;;2.50;2.17;;;22.20;99.90;;;;;;6111668;23;20418;-92
2021/09/06 09:46:19;;;;;;;2.70;2.28;;;22.50;99.90;;;;;;6108759;23;20439;-91
2021/09/06 09:49:13;;;;;;;2.42;2.05;;;22.60;99.90;;;;;;6131243;23;20417;-89
2021/09/06 09:52:00;;;;;;;2.13;2.00;;;22.80;99.90;;;;;;6111697;23;20373;-92
2021/09/06 09:54:55;;;;;;;2.35;1.80;;;23.00;99.90;;;;;;6130334;23;20359;-92
2021/09/06 09:57:44;;;;;;;2.60;2.00;;;23.20;99.90;;;;;;6133966;23;20364;-91
2021/09/06 10:00:36;;;;;;;2.40;2.20;;;23.40;99.90;;;;;;6114206;23;20426;-92
2021/09/06 10:03:25;;;;;;;2.30;2.10;;;23.70;99.90;;;;;;6111887;23;20354;-91
2021/09/06 10:06:17;;;;;;;3.03;2.42;;;24.10;99.90;;;;;;6131280;23;20359;-91
2021/09/06 10:09:06;;;;;;;2.42;2.22;;;24.30;99.90;;;;;;6128938;23;20351;-90
2021/09/06 10:12:10;;;;;;;4.15;2.63;;;24.50;99.90;;;;;;6090547;23;20357;-91
2021/09/06 10:15:03;;;;;;;2.35;2.15;;;24.70;99.90;;;;;;6150010;23;20374;-92
2021/09/06 10:17:55;;;;;;;1.70;1.60;;;24.80;99.90;;;;;;6107764;23;20399;-91
2021/09/06 16:05:18;;;;;;;3.28;2.88;;;27.50;79.60;;;;;;6152946;23;20337;31
2021/09/06 16:08:08;;;;;;;3.35;3.00;;;27.00;81.40;;;;;;6094640;23;20446;-91
2021/09/06 16:10:56;;;;;;;3.22;2.92;;;26.80;83.20;;;;;;6082932;23;20372;-91
2021/09/06 16:13:46;;;;;;;2.70;2.50;;;26.60;82.30;;;;;;6042100;23;20614;-89
2021/09/06 16:16:36;;;;;;;2.30;2.10;;;26.70;83.20;;;;;;6043968;23;20380;-89
2021/09/06 16:19:23;;;;;;;3.20;2.90;;;26.50;83.80;;;;;;6022387;23;20360;-91
2021/09/06 16:22:10;;;;;;;4.05;3.00;;;26.50;84.60;;;;;;6021763;23;20356;-90
2021/09/06 16:24:56;;;;;;;2.50;2.30;;;26.10;85.30;;;;;;6041978;23;20396;-91
2021/09/06 16:27:42;;;;;;;3.70;2.97;;;25.90;86.80;;;;;;6044716;23;25344;-85
2021/09/06 16:30:32;;;;;;;3.17;2.87;;;25.90;86.80;;;;;;6021462;23;20376;-90
2021/09/06 16:33:20;;;;;;;2.95;2.75;;;25.90;86.00;;;;;;6021542;23;20370;-92
2021/09/06 16:39:10;;;;;;;3.05;2.58;;;25.50;87.20;;;;;;6169735;23;20417;-91
2021/09/06 16:41:58;;;;;;;2.65;2.40;;;25.40;87.30;;;;;;6092338;23;20345;-92
2021/09/06 16:44:48;;;;;;;2.83;2.53;;;25.30;88.80;;;;;;6125892;23;20376;-90
2021/09/06 16:47:37;;;;;;;2.30;2.10;;;25.20;89.00;;;;;;6131352;23;20451;-91
2021/09/06 16:50:27;;;;;;;2.72;2.50;;;25.10;89.40;;;;;;6098564;23;20377;-91
2021/09/06 16:56:12;;;;;;;2.33;2.13;;;24.80;90.20;;;;;;6208709;23;20458;-91
2021/09/06 16:58:59;;;;;;;2.28;2.10;;;24.80;90.70;;;;;;6166296;23;20373;-90
2021/09/06 17:01:47;;;;;;;2.35;2.15;;;24.60;90.60;;;;;;6138555;23;20378;-92
2021/09/06 17:41:02;;;;;;;2.70;2.50;;;22.80;95.20;;;;;;6210358;23;20373;-91
2021/09/06 17:43:48;;;;;;;2.50;2.30;;;22.70;95.60;;;;;;6160191;23;20395;-91
2021/09/06 17:46:34;;;;;;;2.60;2.40;;;22.50;96.00;;;;;;6161948;23;20346;-91
2021/09/06 17:49:20;;;;;;;2.67;2.47;;;22.40;96.40;;;;;;6159630;23;20384;-91
2021/09/06 17:52:06;;;;;;;1.95;1.85;;;22.20;96.90;;;;;;6141555;23;20729;-92
2021/09/06 17:54:53;;;;;;;3.40;2.80;;;22.20;97.70;;;;;;6164408;23;20354;-92
2021/09/06 17:57:41;;;;;;;3.35;2.70;;;22.10;98.20;;;;;;6161645;23;20616;-91
2021/09/06 18:00:28;;;;;;;2.35;2.20;;;21.80;98.70;;;;;;6162817;23;20384;-91
2021/09/06 18:03:14;;;;;;;2.60;2.40;;;21.70;99.30;;;;;;6176022;23;20452;-91
2021/09/06 18:06:03;;;;;;;2.30;2.20;;;21.60;99.90;;;;;;6160043;23;20385;-91
2021/09/06 18:08:51;;;;;;;2.93;2.73;;;21.50;99.90;;;;;;6160670;23;20345;-92
2021/09/06 18:11:39;;;;;;;2.70;2.50;;;21.40;99.90;;;;;;6183020;23;20397;-92
2021/09/06 18:14:25;;;;;;;2.65;2.45;;;21.30;99.90;;;;;;6181075;23;20393;-91
2021/09/06 18:17:27;;;;;;;3.03;2.83;;;21.20;99.90;;;;;;6162593;23;20376;-90
2021/09/06 18:20:15;;;;;;;2.72;2.53;;;21.10;99.90;;;;;;6174258;23;20405;-92
2021/09/06 18:23:28;;;;;;;3.78;3.17;;;21.00;99.90;;;;;;6178726;23;20400;-90
2021/09/06 18:26:36;;;;;;;3.80;3.10;;;20.90;99.90;;;;;;6146199;23;20384;-91
2021/09/06 18:29:26;;;;;;;2.72;2.53;;;20.80;99.90;;;;;;6110322;23;20348;-87
2021/09/06 18:32:28;;;;;;;5.15;4.65;;;20.60;99.90;;;;;;6201163;23;20393;-92
2021/09/06 18:35:24;;;;;;;3.00;2.80;;;20.30;99.90;;;;;;6139913;23;20370;-90
2021/09/06 18:38:23;;;;;;;3.00;2.70;;;20.10;99.90;;;;;;6158221;23;20437;-89
2021/09/06 18:41:40;;;;;;;2.78;2.58;;;20.00;99.90;;;;;;6120879;23;20374;-90
2021/09/06 18:44:30;;;;;;;3.97;2.80;;;19.90;99.90;;;;;;6112288;23;20373;-89
2021/09/06 18:47:17;;;;;;;2.80;2.60;;;20.00;99.90;;;;;;6146779;23;20369;-89
2021/09/06 18:50:08;;;;;;;2.55;2.35;;;20.00;99.90;;;;;;6156433;23;20411;-92
2021/09/06 18:52:58;;;;;;;3.42;2.75;;;19.90;99.90;;;;;;6147386;23;20388;-84
2021/09/06 18:55:46;;;;;;;3.20;2.63;;;19.80;99.90;;;;;;6123399;23;20369;-90
2021/09/06 18:58:33;;;;;;;2.70;2.50;;;19.90;99.90;;;;;;6139786;23;20365;-89
2021/09/06 19:01:21;;;;;;;3.10;2.80;;;19.60;99.90;;;;;;6167755;23;20384;-91
2021/09/06 19:04:08;;;;;;;2.80;2.60;;;19.60;99.90;;;;;;6102087;23;20380;-90
2021/09/06 19:06:58;;;;;;;2.60;2.40;;;19.60;99.90;;;;;;6158587;23;20353;-90
2021/09/06 19:09:47;;;;;;;3.10;2.58;;;19.50;99.90;;;;;;6155493;23;20385;-91
2021/09/06 19:12:59;;;;;;;2.70;2.50;;;19.40;99.90;;;;;;6170659;22;20373;-91
2021/09/06 19:15:50;;;;;;;3.13;2.92;;;19.30;99.90;;;;;;6155043;23;20385;-90
2021/09/06 19:18:38;;;;;;;2.40;2.03;;;19.30;99.90;;;;;;6155266;23;20373;-90
2021/09/06 19:21:26;;;;;;;3.47;2.92;;;19.20;99.90;;;;;;6136020;23;20382;-89
2021/09/06 19:24:12;;;;;;;3.08;2.80;;;19.20;99.90;;;;;;6114734;23;20436;-90
2021/09/06 19:27:00;;;;;;;2.92;2.63;;;19.00;99.90;;;;;;6142373;23;20436;-90
2021/09/06 19:29:51;;;;;;;3.17;2.92;;;19.00;99.90;;;;;;6132820;23;20421;-89
2021/09/06 19:32:51;;;;;;;3.00;2.70;;;18.90;99.90;;;;;;6175379;23;20357;-90
2021/09/06 19:36:01;;;;;;;2.67;2.47;;;18.90;99.90;;;;;;6143333;23;20373;-89
2021/09/06 19:39:55;;;;;;;3.00;2.80;;;18.80;99.90;;;;;;6136038;23;20496;-90
2021/09/06 19:43:11;;;;;;;3.50;3.20;;;18.60;99.90;;;;;;6170618;23;20412;-90
2021/09/06 20:10:42;;;;;;;2.70;2.50;;;18.00;99.90;;;;;;6154278;23;20458;-89
2021/09/06 20:14:07;;;;;;;3.03;2.80;;;18.00;99.90;;;;;;6103660;23;20383;-88
2021/09/06 20:17:50;;;;;;;3.80;3.50;;;17.90;99.90;;;;;;6036123;23;20436;-88
2021/09/06 20:20:40;;;;;;;4.22;3.70;;;17.90;99.90;;;;;;6082653;23;20395;-90
2021/09/06 20:23:26;;;;;;;4.20;3.60;;;17.80;99.90;;;;;;6086028;23;20400;-88
2021/09/06 20:26:11;;;;;;;3.75;3.38;;;17.70;99.90;;;;;;6072941;23;20387;-89
2021/09/06 20:28:56;;;;;;;3.50;3.20;;;17.70;99.90;;;;;;6056577;23;20408;-88
2021/09/06 20:31:43;;;;;;;3.88;3.58;;;17.70;99.90;;;;;;6034937;23;20371;-90
2021/09/06 20:34:31;;;;;;;3.30;3.10;;;17.70;99.90;;;;;;6107645;23;20379;-89
2021/09/06 20:37:16;;;;;;;3.53;3.22;;;17.60;99.90;;;;;;6079525;23;20415;-90
2021/09/06 20:40:01;;;;;;;3.63;3.28;;;17.60;99.90;;;;;;6079360;23;20407;-89
2021/09/06 20:42:45;;;;;;;3.95;3.40;;;17.60;99.90;;;;;;6079799;23;20378;-87
2021/09/06 20:45:30;;;;;;;3.47;2.92;;;17.60;99.90;;;;;;6057921;23;20444;-89
2021/09/06 20:48:15;;;;;;;3.70;3.40;;;17.50;99.90;;;;;;6051265;23;20448;-90
2021/09/06 20:51:01;;;;;;;3.83;3.05;;;17.50;99.90;;;;;;6055873;23;20372;-88
2021/09/06 20:53:47;;;;;;;3.13;2.83;;;17.40;99.90;;;;;;6092176;23;20375;-90
2021/09/06 20:56:34;;;;;;;3.50;3.20;;;17.40;99.90;;;;;;6049484;23;20433;-89
2021/09/06 20:59:18;;;;;;;3.78;3.47;;;17.40;99.90;;;;;;6024542;23;20395;-85
2021/09/06 21:02:02;;;;;;;3.53;3.00;;;17.40;99.90;;;;;;6077864;23;20424;-90
2021/09/06 21:04:49;;;;;;;3.67;3.28;;;17.40;99.90;;;;;;6119269;23;20368;-85
2021/09/06 21:07:33;;;;;;;4.03;3.40;;;17.40;99.90;;;;;;6077479;23;20432;-88
2021/09/06 21:10:19;;;;;;;3.90;3.60;;;17.40;99.90;;;;;;6055476;23;20384;-91
2021/09/06 21:13:07;;;;;;;3.28;2.97;;;17.30;99.90;;;;;;6099929;23;20392;-85
2021/09/06 21:16:00;;;;;;;3.92;3.55;;;17.20;99.90;;;;;;6100168;23;20372;-89
2021/09/06 21:20:06;;;;;;;3.72;3.42;;;17.20;99.90;;;;;;6069555;23;20395;-89
2021/09/06 21:23:44;;;;;;;3.87;3.40;;;17.10;99.90;;;;;;6125449;23;20392;-92
2021/09/06 21:31:24;;;;;;;5.10;4.60;;;17.10;99.90;;;;;;5943458;23;20376;-90
2021/09/06 21:35:14;;;;;;;3.75;3.35;;;17.00;99.90;;;;;;6061558;23;20446;-90
2021/09/06 21:38:50;;;;;;;4.03;3.65;;;17.00;99.90;;;;;;6045772;23;20453;-92
2021/09/06 21:42:50;;;;;;;3.58;3.28;;;17.00;99.90;;;;;;6115507;23;20416;-91
2021/09/06 21:46:25;;;;;;;2.87;2.67;;;17.00;99.90;;;;;;5983025;23;20370;-90
2021/09/06 21:50:17;;;;;;;3.38;3.08;;;17.10;99.90;;;;;;6017370;23;20403;-91
2021/09/06 21:53:30;;;;;;;3.20;2.90;;;17.10;99.90;;;;;;6019497;23;20465;-91
2021/09/06 21:56:55;;;;;;;3.20;3.00;;;17.10;99.90;;;;;;5962361;23;20400;-90
2021/09/06 22:00:27;;;;;;;3.33;3.03;;;17.10;99.90;;;;;;5958498;23;20448;-92
2021/09/06 22:03:36;;;;;;;3.22;2.95;;;17.00;99.90;;;;;;5986352;23;20440;-92
2021/09/06 22:06:39;;;;;;;3.83;3.47;;;17.00;99.90;;;;;;6016615;23;20404;-92
2021/09/06 22:09:25;;;;;;;3.58;3.28;;;17.00;99.90;;;;;;5993593;23;20469;-88